Shell Knob, MO (65747)

06:15 AM CDT del 29 Marzo 2017 (GMT -0500)
Lampe / Baxter | | Change Station

Alt. 994 ft 36.57 °N, 93.48 °W | Updated 4 seconds ago

Coperto
Coperto
56.8 °F
Sembra 56.8 °F
N
2.7
Vento Variabile Vento da Ovest
Gusts 4.9 mph

Oggi
Massima -- | Minima -- °F
--% Possibilità di precip.
Ieri
Massima -- | Minima -- °F
Precip. -- in
Pressione 29.87 in
Visibilità 10.0 miglia
Nuvole Coperto 900 ft
Punto di rugiada 52 °F
Umidità 83%
Piovosità 0.00 in
Spessore del manto nevoso Non disponibile.
7:04 AM 7:34 PM
Luna crescente, 3% visible
METAR KFWB 291035Z AUTO 12012G20KT 10SM OVC009 12/10 A2987 RMK AO2
Pressione 29.87 in
Visibilità 10.0 miglia
Nuvole Coperto 900 ft
Punto di rugiada 52 °F
Umidità 83%
Piovosità 0.00 in
Spessore del manto nevoso Non disponibile.
7:04 AM 7:34 PM
Luna crescente, 3% visible
METAR KFWB 291035Z AUTO 12012G20KT 10SM OVC009 12/10 A2987 RMK AO2

Get Severe Weather Alerts

Thanks for signing up!

Be on the lookout for a verification email in your inbox.

You'll start receiving the daily forecast at 8 AM.

×

10-Day Weather Forecast

Almanac

Astronomia

Mar. 29, 2017 Alba Tramonto
Ora attuale
Crepuscolo civile
Crepuscolo nautico
Crepuscolo astronomico
Luna
Estensione della luce visibile
Lunghezza del giorno
Tomorrow will be .
, % of the Moon is Illuminated

Gli estremi di oggi

State Highs State Lows

Community

WunderPhotos

Upload Photos

1,962,540 foto caricate!

WunderBlog® & News

Nearby

Qualità dell'aria

  Qualità dell'aria Indice AQ Inquinante
Not available.

Profondità neve

Stazione Profondità Altitudine

Attività sismica

Città  Distanza Mag. Data & Ora
Minimo Magnitudo Mostrato è 2.5.

Attività sismica

Città  Distanza Mag. Data & Ora
Minimo Magnitudo Mostrato è 2.5.

Temperature delle acque costiere

Località Temperatura

Stations

Stazioni meteo nelle vicinanze

Ubicazione della stazione Temp. Raffreddamento del vento Punto di rugiada Umidità Vento Precip. Alt. Aggiornato Tipo
                   

Watches & Warnings

There are currently no watches in effect.